createdAt,value
2022-07-29T00:01:19.024Z,21.06
2022-07-29T00:03:21.160Z,21.06
2022-07-29T00:05:22.496Z,21.07
2022-07-29T00:07:23.803Z,21.06
2022-07-29T00:09:25.135Z,21.04
2022-07-29T00:11:26.448Z,20.17
2022-07-29T00:13:32.137Z,21.05
2022-07-29T00:15:34.103Z,21.05
2022-07-29T00:17:35.447Z,21.04
2022-07-29T00:19:36.825Z,21.04
2022-07-29T00:21:38.128Z,21.04
2022-07-29T00:23:39.482Z,21.03
2022-07-29T00:25:40.787Z,21.03
2022-07-29T00:27:42.198Z,21.03
2022-07-29T00:29:43.499Z,21.03
2022-07-29T00:31:44.874Z,21.03
2022-07-29T00:33:46.320Z,21.02
2022-07-29T00:35:47.646Z,21.02
2022-07-29T00:37:48.967Z,21.02
2022-07-29T00:39:50.275Z,21.02
2022-07-29T00:41:51.580Z,21.02
2022-07-29T00:43:52.883Z,21.01
2022-07-29T00:45:54.248Z,21.00
2022-07-29T00:47:55.554Z,21.00
2022-07-29T00:49:56.863Z,20.98
2022-07-29T00:51:58.314Z,21.00
2022-07-29T00:53:59.626Z,20.98
2022-07-29T00:56:00.939Z,20.98
2022-07-29T00:58:02.268Z,21.00
2022-07-29T01:00:03.757Z,20.98
2022-07-29T01:02:05.087Z,20.98
2022-07-29T01:04:06.493Z,20.97
2022-07-29T01:06:07.791Z,20.97
2022-07-29T01:08:09.091Z,20.97
2022-07-29T01:10:10.407Z,20.96
2022-07-29T01:12:11.704Z,20.95
2022-07-29T01:14:13.237Z,20.95
2022-07-29T01:16:14.747Z,20.96
2022-07-29T01:18:18.191Z,20.94
2022-07-29T01:20:23.392Z,20.96
2022-07-29T01:22:32.714Z,20.95
2022-07-29T01:24:34.015Z,20.95
2022-07-29T01:26:35.359Z,20.94
2022-07-29T01:28:37.147Z,20.94
2022-07-29T01:30:40.131Z,20.94
2022-07-29T01:32:44.167Z,20.93
2022-07-29T01:34:45.549Z,20.93
2022-07-29T01:36:46.864Z,20.93
2022-07-29T01:38:48.982Z,20.93
2022-07-29T01:40:50.360Z,20.92
2022-07-29T01:42:51.861Z,20.92
2022-07-29T01:44:53.159Z,20.91
2022-07-29T01:46:54.586Z,20.92
2022-07-29T01:48:56.071Z,20.91
2022-07-29T01:50:57.416Z,20.92
2022-07-29T01:52:58.730Z,20.91
2022-07-29T01:55:00.039Z,20.90
2022-07-29T01:57:01.367Z,20.89
2022-07-29T01:59:02.695Z,20.90
2022-07-29T02:01:05.067Z,20.89
2022-07-29T02:03:06.382Z,20.89
2022-07-29T02:05:07.740Z,20.89
2022-07-29T02:07:09.178Z,20.88
2022-07-29T02:09:10.711Z,20.88
2022-07-29T02:11:12.571Z,20.87
2022-07-29T02:13:13.877Z,20.88
2022-07-29T02:15:15.231Z,20.88
2022-07-29T02:17:16.860Z,20.88
2022-07-29T02:19:18.180Z,20.87
2022-07-29T02:21:19.511Z,20.87
2022-07-29T02:23:20.812Z,20.88
2022-07-29T02:25:22.121Z,20.86
2022-07-29T02:27:23.467Z,20.87
2022-07-29T02:29:24.776Z,20.86
2022-07-29T02:31:26.648Z,20.86
2022-07-29T02:33:28.095Z,20.86
2022-07-29T02:35:29.455Z,20.85
2022-07-29T02:37:36.383Z,20.85
2022-07-29T02:39:37.719Z,20.85
2022-07-29T02:41:39.028Z,20.85
2022-07-29T02:43:40.340Z,20.85
2022-07-29T02:45:41.742Z,20.85
2022-07-29T02:47:43.060Z,20.83
2022-07-29T02:49:44.399Z,20.85
2022-07-29T02:51:45.750Z,20.84
2022-07-29T02:53:47.145Z,20.85
2022-07-29T02:55:48.526Z,20.84
2022-07-29T02:57:53.799Z,20.84
2022-07-29T02:59:56.863Z,20.83
2022-07-29T03:01:58.222Z,20.83
2022-07-29T03:03:59.680Z,20.82
2022-07-29T03:06:00.985Z,20.82
2022-07-29T03:08:02.382Z,20.82
2022-07-29T03:10:03.703Z,20.81
2022-07-29T03:12:05.014Z,20.81
2022-07-29T03:14:06.327Z,20.81
2022-07-29T03:16:07.750Z,20.80
2022-07-29T03:18:09.204Z,20.81
2022-07-29T03:20:10.508Z,20.81
2022-07-29T03:22:11.851Z,20.81
2022-07-29T03:24:13.242Z,20.80
2022-07-29T03:26:14.657Z,20.81
2022-07-29T03:28:16.035Z,20.80
2022-07-29T03:30:18.442Z,20.79
2022-07-29T03:32:24.003Z,20.79
2022-07-29T03:34:26.671Z,20.80
2022-07-29T03:36:27.987Z,20.79
2022-07-29T03:38:29.320Z,20.80
2022-07-29T03:40:30.627Z,20.79
2022-07-29T03:42:34.303Z,20.78
2022-07-29T03:44:35.876Z,20.79
2022-07-29T03:46:37.216Z,20.79
2022-07-29T03:48:39.170Z,20.79
2022-07-29T03:50:40.494Z,20.80
2022-07-29T03:52:41.824Z,20.80
2022-07-29T03:54:46.766Z,20.80
2022-07-29T03:56:48.526Z,20.79
2022-07-29T03:58:49.884Z,20.79
2022-07-29T04:00:51.194Z,20.79
2022-07-29T04:02:52.490Z,20.79
2022-07-29T04:04:53.840Z,20.78
2022-07-29T04:06:55.141Z,20.78
2022-07-29T04:08:56.464Z,20.78
2022-07-29T04:10:57.900Z,19.91
2022-07-29T04:12:59.250Z,20.78
2022-07-29T04:15:00.580Z,20.78
2022-07-29T04:17:01.942Z,20.78
2022-07-29T04:19:03.272Z,20.78
2022-07-29T04:21:05.066Z,20.77
2022-07-29T04:23:06.394Z,20.79
2022-07-29T04:25:07.700Z,20.78
2022-07-29T04:27:09.014Z,20.78
2022-07-29T04:29:10.783Z,20.77
2022-07-29T04:31:12.156Z,19.93
2022-07-29T04:33:13.604Z,20.78
2022-07-29T04:35:14.907Z,20.78
2022-07-29T04:37:16.266Z,20.78
2022-07-29T04:39:22.660Z,20.77
2022-07-29T04:41:32.612Z,20.77
2022-07-29T04:43:36.953Z,20.77
2022-07-29T04:45:38.391Z,20.78
2022-07-29T04:47:39.820Z,20.77
2022-07-29T04:49:41.123Z,20.76
2022-07-29T04:51:42.514Z,20.77
2022-07-29T04:53:43.840Z,20.77
2022-07-29T04:55:45.868Z,20.76
2022-07-29T04:57:47.176Z,20.77
2022-07-29T04:59:48.493Z,20.76
2022-07-29T05:01:49.951Z,20.75
2022-07-29T05:03:51.413Z,20.75
2022-07-29T05:05:52.716Z,20.76
2022-07-29T05:07:54.182Z,20.75
2022-07-29T05:09:57.864Z,20.75
2022-07-29T05:11:59.185Z,20.76
2022-07-29T05:14:00.480Z,20.75
2022-07-29T05:16:01.939Z,20.74
2022-07-29T05:18:03.311Z,20.74
2022-07-29T05:20:04.672Z,20.74
2022-07-29T05:22:06.531Z,20.73
2022-07-29T05:24:07.840Z,20.72
2022-07-29T05:26:09.220Z,20.72
2022-07-29T05:28:10.583Z,19.97
2022-07-29T05:30:11.880Z,20.72
2022-07-29T05:32:13.184Z,20.72
2022-07-29T05:34:14.733Z,20.72
2022-07-29T05:36:16.344Z,20.71
2022-07-29T05:38:17.672Z,20.71
2022-07-29T05:40:18.988Z,20.71
2022-07-29T05:42:20.290Z,20.71
2022-07-29T05:44:21.602Z,20.71
2022-07-29T05:46:26.793Z,20.72
2022-07-29T05:48:28.122Z,20.71
2022-07-29T05:50:29.514Z,20.72
2022-07-29T05:52:30.835Z,20.71
2022-07-29T05:54:32.137Z,20.71
2022-07-29T05:56:33.447Z,20.74
2022-07-29T05:58:34.852Z,20.74
2022-07-29T06:00:36.196Z,20.74
2022-07-29T06:02:37.514Z,20.75
2022-07-29T06:04:39.004Z,20.75
2022-07-29T06:06:40.408Z,20.77
2022-07-29T06:08:41.765Z,20.76
2022-07-29T06:10:43.070Z,20.78
2022-07-29T06:12:44.374Z,20.77
2022-07-29T06:14:46.074Z,20.77
2022-07-29T06:16:47.488Z,20.79
2022-07-29T06:18:48.875Z,20.81
2022-07-29T06:20:50.305Z,20.83
2022-07-29T06:22:51.860Z,20.83
2022-07-29T06:24:53.216Z,20.82
2022-07-29T06:26:55.064Z,20.81
2022-07-29T06:28:56.458Z,20.80
2022-07-29T06:30:57.860Z,20.79
2022-07-29T06:32:59.264Z,20.80
2022-07-29T06:35:32.960Z,20.81
2022-07-29T06:37:23.100Z,20.81
2022-07-29T06:39:25.751Z,20.81
2022-07-29T06:41:27.227Z,20.83
2022-07-29T06:43:28.538Z,20.84
2022-07-29T06:45:30.018Z,20.86
2022-07-29T06:47:31.419Z,20.85
2022-07-29T06:49:32.800Z,20.87
2022-07-29T06:51:34.169Z,20.87
2022-07-29T06:53:35.512Z,20.89
2022-07-29T06:55:38.017Z,20.92
2022-07-29T06:57:39.339Z,20.92
2022-07-29T06:59:40.664Z,20.90
2022-07-29T07:01:42.061Z,20.90
2022-07-29T07:03:43.455Z,20.93
2022-07-29T07:05:45.105Z,20.94
2022-07-29T07:07:46.445Z,20.93
2022-07-29T07:09:47.816Z,20.95
2022-07-29T07:11:49.724Z,20.95
2022-07-29T07:13:51.616Z,20.96
2022-07-29T07:15:53.090Z,20.96
2022-07-29T07:17:54.427Z,20.98
2022-07-29T07:19:55.793Z,20.99
2022-07-29T07:21:57.109Z,21.01
2022-07-29T07:23:58.508Z,21.05
2022-07-29T07:25:59.845Z,21.04
2022-07-29T07:28:01.211Z,21.02
2022-07-29T07:30:02.541Z,21.00
2022-07-29T07:32:03.911Z,20.99
2022-07-29T07:34:05.244Z,20.98
2022-07-29T07:36:06.555Z,20.98
2022-07-29T07:38:07.935Z,20.99
2022-07-29T07:40:09.236Z,20.98
2022-07-29T07:42:12.357Z,20.96
2022-07-29T07:44:16.133Z,20.96
2022-07-29T07:46:17.777Z,20.98
2022-07-29T07:48:19.118Z,21.00
2022-07-29T07:50:20.480Z,21.03
2022-07-29T07:52:21.899Z,21.04
2022-07-29T07:54:23.219Z,21.07
2022-07-29T07:56:24.698Z,21.08
2022-07-29T07:58:25.998Z,21.08
2022-07-29T08:00:27.756Z,21.12
2022-07-29T08:02:29.132Z,21.14
2022-07-29T08:04:30.491Z,21.19
2022-07-29T08:06:31.793Z,21.21
2022-07-29T08:08:33.198Z,21.20
2022-07-29T08:10:53.077Z,21.22
2022-07-29T08:12:54.407Z,21.24
2022-07-29T08:14:55.963Z,21.22
2022-07-29T08:16:57.831Z,21.26
2022-07-29T08:18:59.482Z,21.30
2022-07-29T08:21:01.010Z,21.31
2022-07-29T08:23:02.856Z,21.27
2022-07-29T08:25:04.154Z,21.26
2022-07-29T08:27:16.597Z,21.28
2022-07-29T08:29:26.833Z,21.29
2022-07-29T08:31:28.213Z,21.32
2022-07-29T08:33:29.595Z,21.35
2022-07-29T08:35:35.020Z,21.39
2022-07-29T08:37:37.203Z,21.39
2022-07-29T08:39:38.519Z,21.40
2022-07-29T08:41:39.861Z,21.43
2022-07-29T08:43:41.986Z,21.46
2022-07-29T08:45:47.318Z,21.47
2022-07-29T08:47:49.723Z,21.49
2022-07-29T08:49:51.220Z,21.49
2022-07-29T08:51:52.583Z,21.50
2022-07-29T08:53:53.904Z,21.49
2022-07-29T08:55:55.547Z,21.47
2022-07-29T08:57:57.342Z,21.45
2022-07-29T09:00:01.528Z,21.44
2022-07-29T09:02:07.820Z,21.44
2022-07-29T09:04:10.608Z,21.40
2022-07-29T09:06:11.915Z,21.37
2022-07-29T09:08:13.267Z,21.36
2022-07-29T09:10:14.631Z,21.35
2022-07-29T09:12:29.592Z,21.34
2022-07-29T09:14:31.825Z,21.32
2022-07-29T09:16:52.257Z,21.31
2022-07-29T09:18:54.279Z,21.29
2022-07-29T09:21:14.511Z,21.29
2022-07-29T09:23:23.405Z,21.27
2022-07-29T09:25:25.747Z,21.26
2022-07-29T09:27:27.629Z,21.25
2022-07-29T09:29:31.149Z,21.23
2022-07-29T09:31:35.835Z,21.22
2022-07-29T09:33:40.266Z,21.22
2022-07-29T09:35:41.838Z,21.22
2022-07-29T09:37:57.939Z,21.22
2022-07-29T09:39:59.234Z,21.21
2022-07-29T09:42:00.620Z,21.21
2022-07-29T09:44:02.999Z,21.22
2022-07-29T09:46:05.076Z,21.21
2022-07-29T09:48:08.436Z,21.21
2022-07-29T09:50:09.753Z,21.21
2022-07-29T09:52:12.198Z,21.22
2022-07-29T09:54:13.495Z,21.21
2022-07-29T09:56:15.272Z,20.35
2022-07-29T09:58:16.580Z,21.20
2022-07-29T10:00:18.821Z,20.29
2022-07-29T10:02:23.710Z,21.20
2022-07-29T10:04:25.347Z,21.19
2022-07-29T10:06:26.658Z,21.21
2022-07-29T10:08:28.056Z,21.21
2022-07-29T10:10:29.442Z,21.22
2022-07-29T10:12:30.748Z,21.22
2022-07-29T10:14:32.135Z,21.21
2022-07-29T10:16:36.515Z,21.20
2022-07-29T10:18:37.883Z,21.20
2022-07-29T10:20:39.225Z,21.19
2022-07-29T10:22:55.712Z,21.19
2022-07-29T10:24:57.039Z,21.20
2022-07-29T10:26:58.388Z,21.22
2022-07-29T10:29:00.563Z,21.22
2022-07-29T10:31:01.908Z,21.24
2022-07-29T10:33:03.264Z,21.25
2022-07-29T10:35:04.577Z,21.24
2022-07-29T10:37:05.989Z,21.23
2022-07-29T10:39:07.497Z,21.22
2022-07-29T10:41:27.411Z,21.21
2022-07-29T10:43:30.451Z,21.21
2022-07-29T10:45:33.518Z,21.18
2022-07-29T10:47:35.210Z,21.19
2022-07-29T10:49:37.260Z,21.18
2022-07-29T10:51:42.500Z,21.18
2022-07-29T10:53:44.499Z,21.17
2022-07-29T10:55:51.347Z,21.17
2022-07-29T10:57:54.994Z,21.16
2022-07-29T10:59:59.022Z,21.15
2022-07-29T11:02:28.228Z,21.15
2022-07-29T11:04:22.882Z,21.16
2022-07-29T11:06:28.078Z,21.16
2022-07-29T11:08:31.760Z,21.16
2022-07-29T11:10:33.548Z,21.17
2022-07-29T11:12:34.859Z,21.16
2022-07-29T11:14:36.159Z,21.18
2022-07-29T11:16:41.707Z,21.17
2022-07-29T11:18:44.143Z,21.20
2022-07-29T11:20:46.721Z,21.22
2022-07-29T11:22:49.168Z,21.25
2022-07-29T11:24:50.591Z,21.27
2022-07-29T11:26:52.364Z,21.28
2022-07-29T11:28:53.753Z,21.11
2022-07-29T11:30:56.121Z,21.26
2022-07-29T11:32:59.166Z,21.26
2022-07-29T11:35:01.019Z,21.26
2022-07-29T11:37:20.014Z,21.28
2022-07-29T11:39:26.982Z,21.31
2022-07-29T11:41:40.082Z,21.29
2022-07-29T11:43:41.548Z,21.28
2022-07-29T11:45:45.512Z,21.28
2022-07-29T11:47:47.006Z,21.28
2022-07-29T11:49:49.021Z,21.28
2022-07-29T11:51:51.537Z,21.27
2022-07-29T11:53:52.849Z,21.27
2022-07-29T11:55:54.271Z,21.26
2022-07-29T11:58:03.583Z,21.26
2022-07-29T12:00:09.986Z,21.27
2022-07-29T12:04:35.640Z,21.27
2022-07-29T12:06:36.972Z,21.27
2022-07-29T12:08:38.772Z,21.26
2022-07-29T12:10:40.131Z,21.26
2022-07-29T12:12:41.468Z,21.26
2022-07-29T12:14:47.457Z,21.26
2022-07-29T12:16:48.855Z,21.25
2022-07-29T12:18:50.292Z,21.26
2022-07-29T12:20:51.611Z,21.25
2022-07-29T12:22:54.740Z,21.26
2022-07-29T12:25:02.166Z,21.25
2022-07-29T12:27:17.420Z,21.25
2022-07-29T12:29:20.425Z,21.25
2022-07-29T12:31:42.921Z,21.24
2022-07-29T12:33:46.152Z,21.24
2022-07-29T12:35:58.061Z,21.25
2022-07-29T12:38:05.304Z,21.26
2022-07-29T12:40:06.606Z,21.25
2022-07-29T12:42:12.171Z,21.24
2022-07-29T12:44:15.396Z,21.25
2022-07-29T12:46:17.261Z,21.26
2022-07-29T12:48:18.846Z,21.25
2022-07-29T12:50:24.571Z,21.25
2022-07-29T12:52:27.602Z,21.24
2022-07-29T12:54:28.932Z,21.24
2022-07-29T12:56:42.750Z,21.24
2022-07-29T12:58:48.159Z,21.22
2022-07-29T13:00:52.397Z,21.23
2022-07-29T13:02:53.789Z,21.23
2022-07-29T13:04:55.154Z,21.22
2022-07-29T13:06:56.464Z,21.23
2022-07-29T13:08:57.771Z,21.23
2022-07-29T13:10:59.111Z,21.22
2022-07-29T13:13:00.420Z,21.22
2022-07-29T13:15:02.019Z,21.22
2022-07-29T13:17:03.472Z,21.22
2022-07-29T13:19:04.863Z,21.22
2022-07-29T13:21:06.177Z,21.23
2022-07-29T13:23:07.476Z,21.23
2022-07-29T13:25:08.819Z,21.25
2022-07-29T13:27:10.128Z,21.25
2022-07-29T13:29:11.456Z,21.24
2022-07-29T13:31:12.821Z,21.25
2022-07-29T13:33:14.170Z,21.26
2022-07-29T13:35:15.501Z,21.26
2022-07-29T13:37:17.848Z,21.26
2022-07-29T13:39:19.636Z,21.26
2022-07-29T13:41:20.940Z,21.26
2022-07-29T13:43:22.250Z,21.27
2022-07-29T13:45:23.558Z,21.27
2022-07-29T13:47:32.518Z,21.27
2022-07-29T13:49:34.478Z,21.28
2022-07-29T13:51:35.778Z,21.27
2022-07-29T13:53:37.083Z,21.27
2022-07-29T13:55:38.395Z,21.28
2022-07-29T13:57:39.755Z,21.28
2022-07-29T13:59:41.123Z,21.28
2022-07-29T14:01:43.128Z,21.27
2022-07-29T14:03:45.829Z,21.28
2022-07-29T14:05:47.298Z,21.28
2022-07-29T14:07:48.626Z,21.28
2022-07-29T14:09:49.929Z,21.28
2022-07-29T14:11:52.355Z,21.28
2022-07-29T14:13:53.731Z,21.28
2022-07-29T14:15:55.083Z,21.28
2022-07-29T14:17:56.401Z,21.29
2022-07-29T14:19:57.714Z,21.30
2022-07-29T14:21:59.303Z,21.31
2022-07-29T14:24:01.071Z,21.30
2022-07-29T14:26:02.387Z,21.31
2022-07-29T14:28:03.916Z,21.31
2022-07-29T14:30:05.338Z,21.31
2022-07-29T14:32:07.167Z,21.31
2022-07-29T14:34:08.595Z,21.33
2022-07-29T14:36:10.238Z,21.32
2022-07-29T14:38:11.576Z,21.31
2022-07-29T14:40:12.926Z,21.31
2022-07-29T14:42:14.236Z,21.31
2022-07-29T14:44:15.573Z,21.30
2022-07-29T14:46:16.948Z,21.30
2022-07-29T14:48:18.368Z,21.29
2022-07-29T14:50:23.346Z,21.29
2022-07-29T14:52:33.032Z,21.28
2022-07-29T14:54:34.438Z,21.27
2022-07-29T14:56:37.247Z,21.25
2022-07-29T14:58:38.980Z,21.25
2022-07-29T15:00:53.199Z,21.24
2022-07-29T15:03:02.773Z,21.24
2022-07-29T15:05:04.477Z,21.23
2022-07-29T15:07:05.843Z,21.23
2022-07-29T15:09:07.159Z,21.23
2022-07-29T15:11:08.786Z,21.23
2022-07-29T15:13:10.124Z,21.24
2022-07-29T15:15:11.438Z,21.25
2022-07-29T15:17:12.926Z,21.26
2022-07-29T15:19:14.258Z,21.25
2022-07-29T15:21:16.406Z,21.26
2022-07-29T15:23:17.772Z,21.28
2022-07-29T15:25:19.099Z,21.27
2022-07-29T15:27:20.420Z,21.27
2022-07-29T15:29:22.306Z,21.28
2022-07-29T15:31:23.645Z,21.27
2022-07-29T15:33:25.070Z,21.28
2022-07-29T15:35:26.455Z,21.26
2022-07-29T15:37:29.303Z,21.27
2022-07-29T15:39:50.399Z,21.25
2022-07-29T15:41:51.844Z,21.26
2022-07-29T15:43:53.144Z,21.26
2022-07-29T15:46:13.139Z,21.27
2022-07-29T15:48:14.964Z,21.27
2022-07-29T15:50:20.038Z,21.27
2022-07-29T15:52:26.107Z,21.27
2022-07-29T15:54:27.824Z,21.27
2022-07-29T15:56:29.199Z,21.27
2022-07-29T15:58:30.528Z,21.26
2022-07-29T16:00:31.835Z,21.25
2022-07-29T16:02:33.216Z,20.40
2022-07-29T16:04:34.579Z,21.26
2022-07-29T16:06:35.910Z,21.26
2022-07-29T16:08:37.232Z,21.25
2022-07-29T16:10:38.550Z,21.24
2022-07-29T16:12:39.909Z,21.24
2022-07-29T16:14:41.294Z,21.24
2022-07-29T16:16:42.849Z,21.23
2022-07-29T16:18:44.192Z,21.22
2022-07-29T16:20:45.487Z,21.22
2022-07-29T16:22:47.523Z,21.21
2022-07-29T16:24:48.827Z,21.21
2022-07-29T16:26:50.394Z,21.21
2022-07-29T16:28:51.700Z,21.21
2022-07-29T16:30:53.133Z,21.20
2022-07-29T16:32:54.526Z,21.21
2022-07-29T16:34:55.833Z,21.20
2022-07-29T16:36:57.141Z,21.20
2022-07-29T16:38:58.551Z,21.19
2022-07-29T16:40:59.847Z,21.20
2022-07-29T16:43:01.142Z,21.18
2022-07-29T16:45:02.790Z,21.18
2022-07-29T16:47:04.376Z,21.18
2022-07-29T16:49:06.481Z,21.18
2022-07-29T16:51:07.878Z,21.17
2022-07-29T16:53:09.291Z,21.17
2022-07-29T16:55:10.604Z,21.17
2022-07-29T16:57:12.174Z,21.16
2022-07-29T16:59:13.483Z,21.16
2022-07-29T17:01:15.008Z,21.16
2022-07-29T17:03:16.334Z,21.15
2022-07-29T17:05:17.699Z,21.16
2022-07-29T17:07:19.091Z,21.15
2022-07-29T17:09:21.050Z,21.15
2022-07-29T17:11:22.350Z,21.14
2022-07-29T17:13:43.672Z,21.14
2022-07-29T17:15:45.023Z,21.13
2022-07-29T17:17:55.135Z,21.13
2022-07-29T17:19:57.739Z,21.13
2022-07-29T17:22:07.030Z,21.12
2022-07-29T17:24:10.479Z,21.12
2022-07-29T17:26:11.822Z,21.12
2022-07-29T17:28:13.113Z,21.12
2022-07-29T17:30:14.454Z,21.22
2022-07-29T17:32:15.827Z,21.29
2022-07-29T17:34:17.132Z,21.29
2022-07-29T17:36:24.323Z,21.29
2022-07-29T17:38:25.632Z,21.28
2022-07-29T17:40:26.933Z,21.52
2022-07-29T17:42:28.280Z,22.25
2022-07-29T17:44:29.591Z,22.73
2022-07-29T17:46:31.158Z,22.35
2022-07-29T17:48:33.560Z,21.97
2022-07-29T17:50:35.159Z,21.76
2022-07-29T17:52:36.548Z,21.69
2022-07-29T17:54:37.855Z,21.84
2022-07-29T17:56:39.195Z,22.22
2022-07-29T17:58:41.010Z,22.87
2022-07-29T18:00:42.827Z,23.05
2022-07-29T18:02:44.247Z,22.98
2022-07-29T18:04:45.647Z,22.66
2022-07-29T18:06:51.926Z,22.25
2022-07-29T18:08:53.240Z,22.05
2022-07-29T18:10:54.614Z,21.98
2022-07-29T18:12:55.956Z,21.96
2022-07-29T18:14:57.252Z,21.92
2022-07-29T18:16:58.995Z,21.89
2022-07-29T18:19:01.094Z,21.94
2022-07-29T18:21:03.959Z,22.31
2022-07-29T18:23:05.339Z,22.57
2022-07-29T18:25:06.687Z,23.00
2022-07-29T18:27:08.072Z,23.32
2022-07-29T18:29:10.503Z,23.16
2022-07-29T18:31:13.405Z,23.14
2022-07-29T18:33:21.421Z,23.23
2022-07-29T18:35:23.646Z,23.33
2022-07-29T18:38:01.697Z,23.34
2022-07-29T18:39:46.315Z,23.37
2022-07-29T18:41:50.711Z,23.04
2022-07-29T18:43:52.440Z,22.61
2022-07-29T18:45:55.964Z,22.41
2022-07-29T18:47:58.580Z,22.39
2022-07-29T18:49:59.886Z,22.46
2022-07-29T18:52:01.203Z,22.57
2022-07-29T18:54:02.562Z,22.65
2022-07-29T18:56:03.886Z,22.41
2022-07-29T18:58:05.208Z,22.18
2022-07-29T19:00:06.569Z,22.52
2022-07-29T19:02:08.015Z,21.93
2022-07-29T19:04:09.439Z,22.65
2022-07-29T19:06:10.810Z,22.70
2022-07-29T19:08:12.252Z,22.92
2022-07-29T19:10:13.645Z,22.95
2022-07-29T19:12:15.022Z,22.98
2022-07-29T19:14:16.322Z,23.12
2022-07-29T19:16:18.488Z,23.21
2022-07-29T19:18:19.918Z,23.23
2022-07-29T19:20:21.214Z,23.25
2022-07-29T19:22:22.523Z,23.24
2022-07-29T19:24:23.882Z,22.84
2022-07-29T19:26:26.363Z,22.41
2022-07-29T19:28:27.844Z,22.19
2022-07-29T19:30:29.206Z,22.46
2022-07-29T19:32:30.533Z,22.54
2022-07-29T19:34:32.107Z,22.55
2022-07-29T19:36:33.460Z,22.66
2022-07-29T19:38:34.781Z,22.61
2022-07-29T19:40:36.275Z,22.52
2022-07-29T19:42:37.602Z,22.39
2022-07-29T19:44:38.910Z,22.38
2022-07-29T19:46:40.618Z,22.35
2022-07-29T19:48:42.047Z,22.33
2022-07-29T19:50:43.515Z,22.35
2022-07-29T19:52:47.069Z,22.39
2022-07-29T19:54:48.392Z,22.29
2022-07-29T19:56:49.702Z,21.99
2022-07-29T19:58:51.020Z,21.91
2022-07-29T20:00:53.304Z,22.27
2022-07-29T20:02:56.428Z,22.69
2022-07-29T20:04:57.770Z,22.88
2022-07-29T20:07:01.715Z,23.03
2022-07-29T20:09:04.257Z,23.10
2022-07-29T20:11:05.561Z,23.24
2022-07-29T20:13:06.859Z,23.23
2022-07-29T20:15:09.315Z,23.22
2022-07-29T20:17:19.395Z,23.28
2022-07-29T20:19:20.699Z,23.22
2022-07-29T20:21:22.051Z,23.29
2022-07-29T20:23:23.535Z,22.66
2022-07-29T20:25:24.832Z,23.31
2022-07-29T20:27:26.162Z,23.28
2022-07-29T20:29:27.819Z,23.31
2022-07-29T20:31:30.532Z,23.05
2022-07-29T20:33:31.961Z,22.83
2022-07-29T20:35:33.417Z,22.82
2022-07-29T20:37:34.738Z,22.67
2022-07-29T20:39:54.174Z,22.55
2022-07-29T20:41:55.487Z,22.47
2022-07-29T20:43:56.803Z,22.44
2022-07-29T20:45:58.176Z,22.40
2022-07-29T20:47:59.587Z,22.37
2022-07-29T20:50:00.902Z,22.34
2022-07-29T20:52:02.206Z,22.32
2022-07-29T20:54:03.683Z,22.29
2022-07-29T20:56:05.024Z,22.27
2022-07-29T20:58:06.371Z,22.27
2022-07-29T21:00:07.702Z,22.25
2022-07-29T21:02:09.012Z,22.24
2022-07-29T21:04:10.739Z,22.21
2022-07-29T21:06:12.199Z,22.19
2022-07-29T21:08:13.583Z,22.18
2022-07-29T21:10:15.033Z,22.19
2022-07-29T21:12:16.440Z,22.18
2022-07-29T21:14:38.029Z,22.20
2022-07-29T21:16:39.356Z,22.23
2022-07-29T21:18:41.111Z,22.22
2022-07-29T21:20:42.417Z,22.22
2022-07-29T21:22:44.383Z,22.20
2022-07-29T21:24:45.759Z,22.18
2022-07-29T21:26:50.747Z,22.17
2022-07-29T21:29:00.916Z,22.16
2022-07-29T21:31:02.228Z,22.16
2022-07-29T21:33:03.598Z,22.15
2022-07-29T21:35:14.596Z,22.14
2022-07-29T21:37:27.033Z,22.14
2022-07-29T21:39:29.099Z,22.16
2022-07-29T21:41:30.395Z,22.16
2022-07-29T21:43:31.716Z,22.14
2022-07-29T21:45:33.067Z,22.14
2022-07-29T21:47:34.371Z,22.13
2022-07-29T21:49:35.751Z,22.12
2022-07-29T21:51:38.515Z,22.12
2022-07-29T21:53:39.973Z,22.12
2022-07-29T21:55:41.477Z,22.10
2022-07-29T21:57:42.787Z,22.09
2022-07-29T21:59:44.084Z,22.09
2022-07-29T22:01:45.447Z,22.09
2022-07-29T22:03:46.820Z,22.09
2022-07-29T22:05:48.190Z,22.08
2022-07-29T22:07:56.343Z,22.09
2022-07-29T22:09:58.293Z,22.09
2022-07-29T22:11:59.716Z,22.07
2022-07-29T22:14:01.015Z,22.07
2022-07-29T22:16:02.315Z,22.06
2022-07-29T22:18:03.714Z,22.05
2022-07-29T22:20:05.028Z,22.19
2022-07-29T22:22:06.322Z,22.17
2022-07-29T22:24:07.698Z,20.86
2022-07-29T22:26:11.041Z,22.17
2022-07-29T22:28:12.399Z,22.19
2022-07-29T22:30:13.710Z,22.19
2022-07-29T22:32:15.016Z,22.20
2022-07-29T22:34:16.328Z,22.19
2022-07-29T22:36:17.751Z,22.20
2022-07-29T22:38:19.064Z,22.19
2022-07-29T22:40:20.410Z,22.21
2022-07-29T22:42:21.756Z,22.21
2022-07-29T22:44:23.050Z,22.22
2022-07-29T22:46:24.481Z,22.22
2022-07-29T22:48:25.893Z,22.23
2022-07-29T22:50:27.209Z,22.23
2022-07-29T22:52:28.506Z,22.29
2022-07-29T22:54:29.862Z,22.33
2022-07-29T22:56:31.194Z,22.33
2022-07-29T22:58:32.592Z,22.32
2022-07-29T23:00:33.928Z,22.33
2022-07-29T23:02:37.007Z,22.34
2022-07-29T23:04:38.331Z,22.35
2022-07-29T23:06:39.641Z,22.35
2022-07-29T23:08:41.339Z,22.34
2022-07-29T23:10:42.685Z,22.35
2022-07-29T23:12:43.998Z,22.35
2022-07-29T23:14:45.938Z,22.34
2022-07-29T23:16:47.306Z,22.33
2022-07-29T23:18:49.233Z,22.34
2022-07-29T23:20:53.472Z,22.34
2022-07-29T23:22:54.877Z,22.35
2022-07-29T23:24:56.178Z,22.37
2022-07-29T23:26:57.788Z,22.38
2022-07-29T23:28:59.211Z,22.37
2022-07-29T23:31:00.551Z,22.36
2022-07-29T23:33:01.960Z,22.36
2022-07-29T23:35:05.254Z,22.35
2022-07-29T23:37:07.311Z,22.36
2022-07-29T23:39:11.323Z,22.35
2022-07-29T23:41:12.698Z,22.35
2022-07-29T23:43:14.040Z,22.34
2022-07-29T23:45:15.419Z,22.39
2022-07-29T23:47:16.731Z,22.41
2022-07-29T23:49:18.119Z,22.43
2022-07-29T23:51:19.457Z,22.41
2022-07-29T23:53:21.059Z,22.41
2022-07-29T23:55:36.579Z,22.40
2022-07-29T23:57:40.314Z,22.41
2022-07-29T23:59:41.611Z,22.41
